Time;durP1;ratioP1;P1;durP2;ratioP2;P2;SDS_P1;SDS_P2;PMS_P1;PMS_P2;Temp;Humidity;BMP_temperature;BMP_pressure;BME280_temperature;BME280_humidity;BME280_pressure;Samples;Min_cycle;Max_cycle;Signal;HPM_P1;HPM_P2
2021/10/07 00:00:03;;;;;;;3.63;2.10;;;20.80;72.60;;;;;;5039557;27;86557;-76
2021/10/07 00:02:29;;;;;;;4.78;2.40;;;20.80;72.60;;;;;;5040827;27;86977;-77
2021/10/07 00:04:54;;;;;;;3.88;2.30;;;20.80;72.50;;;;;;5042390;27;88780;-77
2021/10/07 00:07:20;;;;;;;5.25;2.50;;;20.80;72.50;;;;;;5035021;27;90160;-76
2021/10/07 00:09:46;;;;;;;5.68;2.28;;;20.80;72.50;;;;;;5046324;27;86433;-77
2021/10/07 00:12:11;;;;;;;5.15;2.42;;;20.80;72.50;;;;;;5042501;27;87241;-76
2021/10/07 00:14:37;;;;;;;5.20;2.40;;;20.80;72.50;;;;;;5045581;27;87446;-77
2021/10/07 00:17:03;;;;;;;3.83;2.10;;;20.80;72.50;;;;;;5044321;27;87146;-77
2021/10/07 00:19:29;;;;;;;4.53;2.30;;;20.80;72.40;;;;;;5045650;27;86847;-77
2021/10/07 00:21:54;;;;;;;5.85;2.33;;;20.80;72.40;;;;;;5047617;27;86609;-77
2021/10/07 00:24:20;;;;;;;4.63;2.45;;;20.80;72.40;;;;;;5047651;27;87149;-76
2021/10/07 00:26:47;;;;;;;2.83;2.00;;;20.80;72.40;;;;;;5048349;27;86223;-77
2021/10/07 00:31:50;;;;;;;5.57;2.40;;;20.80;72.30;;;;;;5048269;27;86077;-76
2021/10/07 00:39:32;;;;;;;3.65;2.47;;;20.80;72.30;;;;;;5047259;27;86675;-76
2021/10/07 00:41:58;;;;;;;5.28;2.55;;;20.80;72.30;;;;;;5046662;27;85990;-76
2021/10/07 00:44:29;;;;;;;3.55;1.80;;;20.80;72.20;;;;;;5050667;27;89530;-76
2021/10/07 00:46:59;;;;;;;6.15;2.22;;;20.80;72.20;;;;;;5051054;27;86714;-77
2021/10/07 00:49:25;;;;;;;4.60;2.17;;;20.80;72.20;;;;;;5046353;27;86398;-76
2021/10/07 00:51:51;;;;;;;5.20;1.98;;;20.80;72.20;;;;;;5048466;27;86807;-77
2021/10/07 00:54:20;;;;;;;5.53;2.58;;;20.80;72.20;;;;;;5044507;27;88362;-76
2021/10/07 00:56:46;;;;;;;4.70;2.10;;;20.80;72.20;;;;;;5044024;27;87921;-76
2021/10/07 00:59:12;;;;;;;5.25;1.95;;;20.80;72.20;;;;;;5036749;27;87292;-77
2021/10/07 01:01:38;;;;;;;4.35;2.17;;;20.80;72.20;;;;;;5041815;27;86260;-77
2021/10/07 01:04:05;;;;;;;4.97;2.30;;;20.80;72.10;;;;;;5040217;27;85779;-77
2021/10/07 01:06:31;;;;;;;3.20;1.88;;;20.80;72.10;;;;;;5038735;27;88258;-76
2021/10/07 01:08:58;;;;;;;4.28;2.22;;;20.80;72.10;;;;;;5039104;27;86484;-77
2021/10/07 01:11:24;;;;;;;4.75;2.15;;;20.70;72.10;;;;;;5043366;27;86667;-76
2021/10/07 01:13:49;;;;;;;4.43;2.08;;;20.80;72.10;;;;;;5039035;27;92086;-76
2021/10/07 01:16:18;;;;;;;3.72;1.98;;;20.70;72.00;;;;;;5042418;27;86526;-76
2021/10/07 01:18:44;;;;;;;3.10;1.90;;;20.80;72.10;;;;;;5046221;27;86121;-77
2021/10/07 01:21:11;;;;;;;3.30;2.00;;;20.80;72.10;;;;;;5044260;27;86647;-76
2021/10/07 01:23:40;;;;;;;3.55;1.98;;;20.70;72.00;;;;;;5045268;27;87961;-76
2021/10/07 01:26:10;;;;;;;3.88;2.08;;;20.70;72.00;;;;;;5044692;27;86958;-76
2021/10/07 01:28:45;;;;;;;5.75;1.88;;;20.70;72.00;;;;;;5045102;27;85960;-78
2021/10/07 01:31:12;;;;;;;4.38;1.92;;;20.80;72.10;;;;;;5038810;27;86253;-78
2021/10/07 01:33:38;;;;;;;5.13;1.90;;;20.80;72.10;;;;;;5043326;27;89886;-78
2021/10/07 01:36:05;;;;;;;5.65;2.20;;;20.80;72.10;;;;;;5045755;27;86537;-78
2021/10/07 01:38:31;;;;;;;4.32;1.85;;;20.80;72.10;;;;;;5042615;27;86869;-78
2021/10/07 01:40:57;;;;;;;3.58;1.88;;;20.70;72.10;;;;;;5046249;27;87022;-78
2021/10/07 01:43:23;;;;;;;3.97;2.13;;;20.70;72.00;;;;;;5045281;27;88691;-79
2021/10/07 01:45:50;;;;;;;2.83;1.73;;;20.80;72.10;;;;;;5046046;27;86212;-79
2021/10/07 01:48:17;;;;;;;3.08;1.75;;;20.70;72.00;;;;;;5047241;27;86718;-78
2021/10/07 01:50:43;;;;;;;4.10;1.75;;;20.80;72.00;;;;;;5043909;27;86728;-79
2021/10/07 01:53:09;;;;;;;3.20;1.60;;;20.80;72.00;;;;;;5043967;27;87098;-78
2021/10/07 01:55:35;;;;;;;3.83;1.60;;;20.80;72.10;;;;;;5047527;27;86158;-78
2021/10/07 01:58:00;;;;;;;3.13;1.55;;;20.70;72.00;;;;;;5037002;27;87004;-78
2021/10/07 02:00:26;;;;;;;3.60;1.65;;;20.70;72.00;;;;;;5041823;27;87065;-78
2021/10/07 02:02:52;;;;;;;2.28;1.48;;;20.70;72.00;;;;;;5032847;27;88632;-79
2021/10/07 02:05:18;;;;;;;3.50;1.73;;;20.80;72.00;;;;;;5043951;27;87183;-79
2021/10/07 02:07:44;;;;;;;4.15;1.77;;;20.70;72.00;;;;;;5044446;27;86435;-78
2021/10/07 02:10:17;;;;;;;3.00;1.95;;;20.70;71.90;;;;;;5045283;27;86677;-79
2021/10/07 02:12:48;;;;;;;2.80;1.73;;;20.70;71.90;;;;;;5037745;27;88917;-78
2021/10/07 02:15:15;;;;;;;5.30;2.03;;;20.70;71.80;;;;;;5045744;27;86908;-78
2021/10/07 02:17:40;;;;;;;3.67;1.70;;;20.70;71.80;;;;;;5041857;27;87176;-79
2021/10/07 02:20:09;;;;;;;4.43;1.95;;;20.70;71.80;;;;;;5059637;27;86028;-78
2021/10/07 02:22:35;;;;;;;4.00;2.00;;;20.70;71.80;;;;;;5037063;27;89680;-78
2021/10/07 02:25:02;;;;;;;5.13;1.90;;;20.80;71.90;;;;;;5041107;27;87378;-78
2021/10/07 02:27:27;;;;;;;2.40;1.40;;;20.70;71.80;;;;;;5037411;27;86480;-79
2021/10/07 02:29:53;;;;;;;3.17;1.80;;;20.70;71.70;;;;;;5042002;27;86290;-79
2021/10/07 02:32:19;;;;;;;3.00;1.85;;;20.70;71.70;;;;;;5043969;27;88585;-78
2021/10/07 02:34:44;;;;;;;2.42;1.55;;;20.70;71.70;;;;;;5034055;27;89977;-78
2021/10/07 02:37:10;;;;;;;3.22;1.90;;;20.70;71.70;;;;;;5039117;27;86643;-78
2021/10/07 02:39:37;;;;;;;3.10;1.65;;;20.70;71.70;;;;;;5045925;27;86201;-79
2021/10/07 02:42:03;;;;;;;4.22;1.92;;;20.70;71.60;;;;;;5043272;27;90183;-78
2021/10/07 02:44:28;;;;;;;3.90;1.60;;;20.70;71.60;;;;;;5038770;27;87385;-79
2021/10/07 02:46:55;;;;;;;2.38;1.45;;;20.70;71.60;;;;;;5058877;27;86329;-79
2021/10/07 02:49:21;;;;;;;3.10;1.70;;;20.70;71.50;;;;;;5041882;27;85992;-78
2021/10/07 02:51:46;;;;;;;3.00;1.77;;;20.70;71.50;;;;;;5038519;27;88667;-78
2021/10/07 02:54:12;;;;;;;3.00;1.92;;;20.70;71.50;;;;;;5038796;27;86325;-79
2021/10/07 02:56:38;;;;;;;2.88;1.42;;;20.70;71.50;;;;;;5040922;27;86294;-78
2021/10/07 02:59:03;;;;;;;3.83;1.90;;;20.70;71.50;;;;;;5038009;22;86126;-75
2021/10/07 03:01:29;;;;;;;2.90;1.75;;;20.70;71.50;;;;;;4984477;28;91041;-74
2021/10/07 03:03:55;;;;;;;3.15;1.52;;;20.70;71.40;;;;;;4998773;28;89000;-73
2021/10/07 03:06:20;;;;;;;2.85;1.73;;;20.70;71.40;;;;;;5001262;28;86322;-76
2021/10/07 03:08:46;;;;;;;3.88;1.67;;;20.70;71.50;;;;;;4999544;28;85817;-73
2021/10/07 03:11:13;;;;;;;3.53;1.98;;;20.70;71.40;;;;;;4981541;28;87584;-75
2021/10/07 03:13:38;;;;;;;3.33;1.58;;;20.70;71.40;;;;;;5002076;28;86566;-73
2021/10/07 03:16:04;;;;;;;3.17;1.77;;;20.70;71.40;;;;;;4996685;28;86414;-73
2021/10/07 03:18:30;;;;;;;4.10;2.10;;;20.70;71.40;;;;;;4981085;28;85875;-75
2021/10/07 03:20:55;;;;;;;3.85;1.70;;;20.70;71.40;;;;;;5001175;28;87383;-75
2021/10/07 03:23:21;;;;;;;3.80;2.10;;;20.70;71.40;;;;;;4977631;28;88223;-73
2021/10/07 03:25:47;;;;;;;2.28;1.25;;;20.70;71.30;;;;;;4999045;28;86127;-74
2021/10/07 03:28:13;;;;;;;1.67;1.50;;;20.70;71.30;;;;;;5002194;28;86808;-74
2021/10/07 03:30:39;;;;;;;2.28;1.50;;;20.70;71.20;;;;;;4985807;28;88475;-74
2021/10/07 03:33:06;;;;;;;3.35;1.95;;;20.70;71.30;;;;;;4994364;28;87194;-74
2021/10/07 03:35:32;;;;;;;3.53;1.80;;;20.70;71.20;;;;;;4977899;28;86680;-74
2021/10/07 03:37:58;;;;;;;2.92;1.60;;;20.70;71.20;;;;;;4983072;28;86149;-74
2021/10/07 03:40:24;;;;;;;1.83;1.30;;;20.70;71.30;;;;;;5003554;28;86389;-74
2021/10/07 03:42:49;;;;;;;2.80;1.52;;;20.60;71.20;;;;;;4999984;28;86537;-75
2021/10/07 03:45:15;;;;;;;2.22;1.42;;;20.70;71.20;;;;;;5000109;28;86157;-74
2021/10/07 03:47:40;;;;;;;3.47;1.50;;;20.70;71.30;;;;;;5001198;28;86859;-74
2021/10/07 03:50:06;;;;;;;3.22;1.60;;;20.70;71.30;;;;;;5004002;28;86869;-74
2021/10/07 03:52:32;;;;;;;3.03;1.65;;;20.70;71.30;;;;;;4981188;28;89902;-74
2021/10/07 03:54:58;;;;;;;2.47;1.73;;;20.70;71.30;;;;;;4997047;28;86855;-76
2021/10/07 03:57:26;;;;;;;2.58;1.52;;;20.70;71.90;;;;;;5000230;28;86180;-76
2021/10/07 03:59:52;;;;;;;2.35;1.58;;;20.60;71.30;;;;;;5000637;28;87495;-73
2021/10/07 04:02:18;;;;;;;2.45;1.65;;;20.60;71.30;;;;;;4999600;28;86530;-74
2021/10/07 04:04:44;;;;;;;2.53;1.33;;;20.70;71.30;;;;;;5000181;28;86395;-74
2021/10/07 04:07:09;;;;;;;2.47;1.30;;;20.60;71.20;;;;;;4998189;28;86296;-74
2021/10/07 04:09:35;;;;;;;2.75;1.45;;;20.70;71.30;;;;;;4979909;28;89775;-74
2021/10/07 04:12:00;;;;;;;2.92;1.85;;;20.70;71.30;;;;;;4986059;28;87978;-74
2021/10/07 04:14:26;;;;;;;3.88;1.58;;;20.70;71.30;;;;;;5003312;28;86690;-75
2021/10/07 04:16:52;;;;;;;2.78;1.60;;;20.60;71.20;;;;;;5004189;28;85953;-74
2021/10/07 04:19:19;;;;;;;2.63;1.30;;;20.60;71.20;;;;;;4982443;28;90578;-75
2021/10/07 04:21:45;;;;;;;3.15;1.65;;;20.60;71.20;;;;;;4999187;28;86659;-75
2021/10/07 04:24:11;;;;;;;2.10;1.33;;;20.60;71.10;;;;;;4982465;28;86293;-74
2021/10/07 04:26:37;;;;;;;2.42;1.48;;;20.60;71.20;;;;;;4984014;28;86452;-75
2021/10/07 04:29:03;;;;;;;3.25;1.90;;;20.60;71.10;;;;;;4998336;28;86541;-74
2021/10/07 04:31:29;;;;;;;2.65;1.98;;;20.60;71.10;;;;;;4995381;28;88463;-75
2021/10/07 04:33:54;;;;;;;2.67;1.55;;;20.60;71.10;;;;;;4999192;28;86158;-74
2021/10/07 04:36:20;;;;;;;2.42;1.48;;;20.60;71.10;;;;;;4977652;28;86582;-74
2021/10/07 04:38:46;;;;;;;2.63;1.60;;;20.60;71.10;;;;;;4984142;28;87853;-75
2021/10/07 04:41:12;;;;;;;3.08;1.42;;;20.60;71.10;;;;;;5001515;28;86818;-74
2021/10/07 04:43:38;;;;;;;4.07;1.50;;;20.60;71.10;;;;;;5000614;28;86029;-74
2021/10/07 04:46:04;;;;;;;2.15;1.40;;;20.60;71.10;;;;;;4980254;28;86826;-73
2021/10/07 04:48:30;;;;;;;1.95;1.45;;;20.60;71.10;;;;;;5004365;28;87371;-73
2021/10/07 04:50:56;;;;;;;3.33;1.67;;;20.60;71.10;;;;;;5004459;28;87005;-74
2021/10/07 04:53:23;;;;;;;1.90;1.20;;;20.60;71.10;;;;;;5002849;28;86172;-74
2021/10/07 04:55:54;;;;;;;2.55;1.20;;;20.60;71.10;;;;;;5002789;28;86162;-74
2021/10/07 04:58:23;;;;;;;2.60;1.70;;;20.60;71.10;;;;;;5005283;28;88027;-73
2021/10/07 05:00:49;;;;;;;2.58;1.45;;;20.60;71.10;;;;;;4984789;28;86821;-74
2021/10/07 05:03:15;;;;;;;2.25;1.33;;;20.60;71.10;;;;;;4985604;28;87227;-74
2021/10/07 05:05:42;;;;;;;2.35;1.35;;;20.60;71.10;;;;;;5002241;28;86359;-74
2021/10/07 05:08:09;;;;;;;2.25;1.67;;;20.60;71.10;;;;;;5002628;28;86863;-74
2021/10/07 05:10:35;;;;;;;2.25;1.30;;;20.50;71.00;;;;;;5001497;28;87257;-74
2021/10/07 05:13:01;;;;;;;5.35;1.98;;;20.60;71.10;;;;;;5004576;28;86675;-75
2021/10/07 05:15:27;;;;;;;1.92;1.30;;;20.60;71.10;;;;;;4987949;28;86409;-75
2021/10/07 05:17:53;;;;;;;2.38;1.33;;;20.60;71.10;;;;;;5003742;28;86400;-74
2021/10/07 05:20:19;;;;;;;2.13;1.35;;;20.60;71.10;;;;;;4983121;28;88775;-73
2021/10/07 05:22:45;;;;;;;1.75;1.20;;;20.60;71.10;;;;;;4979897;28;86044;-74
2021/10/07 05:25:11;;;;;;;2.05;1.30;;;20.60;71.10;;;;;;5003755;28;86011;-74
2021/10/07 05:27:36;;;;;;;1.38;1.27;;;20.60;71.00;;;;;;5003661;28;86782;-74
2021/10/07 05:30:03;;;;;;;2.55;1.30;;;20.60;71.40;;;;;;5005960;28;86012;-77
2021/10/07 05:32:29;;;;;;;2.75;1.27;;;20.60;71.10;;;;;;4989301;28;85872;-74
2021/10/07 05:34:54;;;;;;;2.40;1.40;;;20.60;71.00;;;;;;5004209;28;85764;-74
2021/10/07 05:37:20;;;;;;;3.03;1.50;;;20.60;71.00;;;;;;4982618;28;92408;-74
2021/10/07 05:39:46;;;;;;;2.15;1.27;;;20.60;71.10;;;;;;4984205;28;87710;-74
2021/10/07 05:42:12;;;;;;;2.80;1.60;;;20.50;71.00;;;;;;5000991;28;86505;-74
2021/10/07 05:44:37;;;;;;;2.47;1.00;;;20.50;71.00;;;;;;4985309;28;86828;-74
2021/10/07 05:47:03;;;;;;;2.55;1.40;;;20.50;71.00;;;;;;5002770;28;87154;-74
2021/10/07 05:49:29;;;;;;;2.47;1.20;;;20.50;71.00;;;;;;5008012;28;86666;-75
2021/10/07 05:51:55;;;;;;;2.75;1.58;;;20.50;71.00;;;;;;5002759;28;86313;-74
2021/10/07 05:54:22;;;;;;;2.03;1.00;;;20.50;71.00;;;;;;5001081;28;85982;-74
2021/10/07 05:56:47;;;;;;;3.20;1.55;;;20.50;71.00;;;;;;5002241;28;86571;-74
2021/10/07 05:59:13;;;;;;;1.88;1.10;;;20.50;71.00;;;;;;5004992;28;86625;-74
2021/10/07 06:01:40;;;;;;;1.45;1.10;;;20.50;71.00;;;;;;4998494;28;86090;-74
2021/10/07 06:04:06;;;;;;;1.63;1.10;;;20.50;71.00;;;;;;5006090;28;87215;-74
2021/10/07 06:06:32;;;;;;;2.58;1.30;;;20.50;71.00;;;;;;4986207;28;89977;-73
2021/10/07 06:08:57;;;;;;;3.63;1.42;;;20.50;71.00;;;;;;5004889;28;87268;-73
2021/10/07 06:11:23;;;;;;;2.63;1.33;;;20.50;71.50;;;;;;5008623;28;86294;-73
2021/10/07 06:13:49;;;;;;;2.85;1.30;;;20.50;71.00;;;;;;5001421;28;86181;-74
2021/10/07 06:16:16;;;;;;;3.05;1.50;;;20.50;71.40;;;;;;5001560;28;86575;-74
2021/10/07 06:18:42;;;;;;;5.82;1.60;;;20.60;71.70;;;;;;4981790;28;88042;-71
2021/10/07 06:21:08;;;;;;;3.45;1.40;;;20.60;70.20;;;;;;5001042;28;86573;-73
2021/10/07 06:23:34;;;;;;;2.22;1.17;;;20.70;69.70;;;;;;5001005;28;87238;-71
2021/10/07 06:25:59;;;;;;;3.55;1.73;;;20.80;69.20;;;;;;5005410;28;86891;-76
2021/10/07 06:28:25;;;;;;;2.53;1.70;;;20.90;69.30;;;;;;5006604;28;87027;-71
2021/10/07 06:30:51;;;;;;;5.00;2.00;;;21.00;69.40;;;;;;5001895;28;86341;-70
2021/10/07 06:33:16;;;;;;;2.78;1.52;;;21.10;69.50;;;;;;5004518;28;86792;-69
2021/10/07 06:35:42;;;;;;;2.67;1.60;;;21.10;69.80;;;;;;5000315;28;86447;-71
2021/10/07 06:38:10;;;;;;;3.08;1.40;;;21.20;69.60;;;;;;4980058;28;88578;-71
2021/10/07 06:40:37;;;;;;;2.10;1.25;;;21.20;69.30;;;;;;5003919;28;86175;-68
2021/10/07 06:43:03;;;;;;;3.83;1.38;;;21.20;69.20;;;;;;4983381;28;87093;-72
2021/10/07 06:45:29;;;;;;;2.45;1.50;;;21.20;68.90;;;;;;4998362;28;87202;-70
2021/10/07 06:47:55;;;;;;;1.95;1.75;;;21.20;68.80;;;;;;4994932;28;86954;-71
2021/10/07 06:50:21;;;;;;;3.42;1.58;;;21.20;68.80;;;;;;4992678;28;86336;-72
2021/10/07 06:52:47;;;;;;;2.80;1.50;;;21.20;68.80;;;;;;5005699;28;85885;-73
2021/10/07 06:55:13;;;;;;;4.32;1.45;;;21.20;68.90;;;;;;4999478;28;86898;-74
2021/10/07 06:57:40;;;;;;;5.25;1.50;;;21.20;69.00;;;;;;5003449;28;86671;-70
2021/10/07 07:00:09;;;;;;;8.35;1.92;;;21.20;69.10;;;;;;5007775;28;85782;-70
2021/10/07 07:02:36;;;;;;;5.82;1.83;;;21.10;69.20;;;;;;4951847;28;86516;-70
2021/10/07 07:05:05;;;;;;;3.78;1.50;;;21.10;69.20;;;;;;4967862;28;86623;-70
2021/10/07 07:07:31;;;;;;;8.15;2.30;;;21.10;70.50;;;;;;4959333;28;86927;-71
2021/10/07 07:09:56;;;;;;;3.45;1.80;;;21.10;72.10;;;;;;4961158;28;86489;-70
2021/10/07 07:12:22;;;;;;;4.30;1.50;;;21.00;72.50;;;;;;4965240;28;85857;-70
2021/10/07 07:14:47;;;;;;;3.95;2.10;;;21.10;72.70;;;;;;4947208;28;89542;-71
2021/10/07 07:17:15;;;;;;;3.30;1.48;;;21.10;72.70;;;;;;4946952;28;88973;-71
2021/10/07 07:19:41;;;;;;;4.00;1.60;;;21.10;72.30;;;;;;4961928;28;86116;-70
2021/10/07 07:22:07;;;;;;;5.65;1.67;;;21.00;72.00;;;;;;4944346;28;86992;-70
2021/10/07 07:24:33;;;;;;;17.10;4.40;;;21.00;69.40;;;;;;4958002;28;86631;-69
2021/10/07 07:26:59;;;;;;;14.38;4.13;;;21.00;69.10;;;;;;4959473;28;86221;-73
2021/10/07 07:29:25;;;;;;;10.07;3.28;;;21.00;69.30;;;;;;4938869;28;86104;-72
2021/10/07 07:31:50;;;;;;;5.95;2.22;;;21.00;69.30;;;;;;4939223;28;85929;-72
2021/10/07 07:34:16;;;;;;;8.10;2.00;;;21.00;69.00;;;;;;4951817;28;90222;-71
2021/10/07 07:36:42;;;;;;;5.82;2.00;;;20.90;68.30;;;;;;4958218;28;86316;-71
2021/10/07 07:39:08;;;;;;;5.97;2.30;;;20.90;67.90;;;;;;4942177;28;87014;-70
2021/10/07 07:41:34;;;;;;;7.40;2.95;;;20.90;67.60;;;;;;4945405;28;86044;-70
2021/10/07 07:44:00;;;;;;;8.05;2.15;;;20.90;68.00;;;;;;4957971;28;86858;-69
2021/10/07 07:46:26;;;;;;;7.80;2.50;;;20.90;69.80;;;;;;4960311;28;87351;-69
2021/10/07 07:48:51;;;;;;;6.82;2.70;;;21.00;71.70;;;;;;4959189;28;86508;-72
2021/10/07 07:51:18;;;;;;;12.60;2.63;;;21.00;71.60;;;;;;4947796;28;87669;-69
2021/10/07 07:53:43;;;;;;;7.72;2.25;;;21.00;71.70;;;;;;4959085;28;86379;-69
2021/10/07 07:56:09;;;;;;;7.60;2.67;;;21.00;71.60;;;;;;4956081;28;86613;-71
2021/10/07 07:58:35;;;;;;;8.43;2.65;;;21.00;71.60;;;;;;4954159;28;85981;-71
2021/10/07 08:01:01;;;;;;;14.68;3.15;;;21.00;71.60;;;;;;4942505;28;86341;-70
2021/10/07 08:03:27;;;;;;;23.77;4.03;;;21.00;70.90;;;;;;4956641;28;86946;-71
2021/10/07 08:05:53;;;;;;;45.15;8.98;;;21.00;70.10;;;;;;4941095;28;88359;-70
2021/10/07 08:08:19;;;;;;;44.40;10.48;;;21.10;70.00;;;;;;4960061;28;86002;-72
2021/10/07 08:10:45;;;;;;;55.13;11.20;;;21.10;69.50;;;;;;4938988;28;86817;-72
2021/10/07 08:13:10;;;;;;;61.47;14.80;;;21.20;69.40;;;;;;4961577;28;87885;-69
2021/10/07 08:15:36;;;;;;;46.90;12.75;;;21.20;69.10;;;;;;4956507;28;86529;-70
2021/10/07 08:18:02;;;;;;;37.67;9.45;;;21.20;69.30;;;;;;4964555;28;86945;-71
2021/10/07 08:20:28;;;;;;;35.35;9.25;;;21.30;69.10;;;;;;4961574;28;85744;-70
2021/10/07 08:22:54;;;;;;;34.42;9.15;;;21.30;68.30;;;;;;4959823;28;86876;-71
2021/10/07 08:25:20;;;;;;;30.23;9.85;;;21.40;67.70;;;;;;4941641;28;88729;-73
2021/10/07 08:27:46;;;;;;;29.23;9.07;;;21.40;67.40;;;;;;4947529;28;86935;-70
2021/10/07 08:30:15;;;;;;;26.95;8.38;;;21.40;66.90;;;;;;4943796;28;86939;-72
2021/10/07 08:32:40;;;;;;;33.25;8.82;;;21.50;66.70;;;;;;4953698;28;87625;-73
2021/10/07 08:35:08;;;;;;;23.88;7.28;;;21.50;66.30;;;;;;4958661;28;87861;-76
2021/10/07 08:37:34;;;;;;;29.63;8.80;;;21.60;66.10;;;;;;4957734;28;87179;-73
2021/10/07 08:40:03;;;;;;;18.52;7.57;;;21.60;66.00;;;;;;4957224;28;86087;-70
2021/10/07 08:42:29;;;;;;;20.33;6.63;;;21.60;65.90;;;;;;4958339;28;88654;-70
2021/10/07 08:44:56;;;;;;;20.63;7.18;;;21.70;65.60;;;;;;4955238;28;86676;-72
2021/10/07 08:47:22;;;;;;;23.00;7.13;;;21.70;65.30;;;;;;4937955;28;86099;-70
2021/10/07 08:49:52;;;;;;;19.55;6.90;;;21.70;65.10;;;;;;4958422;28;87546;-71
2021/10/07 08:52:20;;;;;;;15.57;6.60;;;21.90;65.00;;;;;;4963694;28;88466;-70
2021/10/07 08:54:46;;;;;;;16.50;7.32;;;21.90;64.80;;;;;;4951427;28;86649;-71
2021/10/07 08:57:12;;;;;;;22.80;6.95;;;21.90;64.60;;;;;;4937006;28;87046;-73
2021/10/07 08:59:37;;;;;;;17.02;6.88;;;22.00;64.50;;;;;;4956553;28;87064;-70
2021/10/07 09:02:07;;;;;;;15.43;6.75;;;22.00;64.10;;;;;;4951585;28;87379;-74
2021/10/07 09:04:35;;;;;;;14.57;6.00;;;22.00;63.90;;;;;;4957807;28;86431;-73
2021/10/07 09:07:08;;;;;;;14.90;6.78;;;22.00;63.80;;;;;;4955840;28;86463;-70
2021/10/07 09:09:37;;;;;;;11.05;5.70;;;22.00;63.70;;;;;;4935805;28;86996;-72
2021/10/07 09:12:06;;;;;;;10.60;5.40;;;22.10;63.50;;;;;;4959733;28;86892;-71
2021/10/07 09:14:52;;;;;;;10.32;5.15;;;22.10;63.40;;;;;;4936986;28;89182;-72
2021/10/07 09:17:21;;;;;;;14.65;6.22;;;22.10;63.30;;;;;;4958622;28;86190;-73
2021/10/07 09:19:48;;;;;;;13.15;5.65;;;22.10;63.40;;;;;;4951243;28;86886;-70
2021/10/07 09:22:21;;;;;;;11.90;4.93;;;22.10;63.50;;;;;;4955239;28;86737;-70
2021/10/07 09:24:55;;;;;;;11.77;5.65;;;22.10;63.40;;;;;;4944244;28;89445;-72
2021/10/07 09:27:27;;;;;;;11.95;5.72;;;22.10;63.20;;;;;;4937337;28;87615;-70
2021/10/07 09:29:58;;;;;;;12.40;5.15;;;22.10;63.10;;;;;;4959486;28;86845;-70
2021/10/07 09:32:37;;;;;;;11.27;5.20;;;22.10;63.00;;;;;;4958489;28;86529;-71
2021/10/07 09:35:14;;;;;;;12.57;4.82;;;22.10;62.90;;;;;;4948248;28;89532;-71
2021/10/07 09:37:41;;;;;;;9.07;4.75;;;22.10;62.80;;;;;;4955821;28;86503;-71
2021/10/07 09:40:21;;;;;;;10.45;4.82;;;22.10;62.80;;;;;;4959458;28;85864;-71
2021/10/07 09:42:46;;;;;;;10.35;5.18;;;22.20;62.90;;;;;;4942377;28;90326;-73
2021/10/07 09:45:44;;;;;;;11.65;5.82;;;22.20;62.70;;;;;;4958890;28;87055;-71
2021/10/07 09:48:10;;;;;;;10.40;5.45;;;22.20;62.80;;;;;;4952542;28;86271;-70
2021/10/07 09:50:39;;;;;;;16.90;5.97;;;22.20;63.00;;;;;;4954626;28;85949;-70
2021/10/07 09:53:12;;;;;;;12.07;6.13;;;22.20;63.20;;;;;;4961500;28;87180;-70
2021/10/07 09:55:47;;;;;;;12.00;6.15;;;22.20;63.40;;;;;;4936918;28;89824;-71
2021/10/07 09:58:17;;;;;;;13.90;6.13;;;22.20;63.30;;;;;;4956443;28;86164;-71
2021/10/07 10:00:49;;;;;;;13.48;6.35;;;22.20;63.40;;;;;;4942515;28;86812;-70
2021/10/07 10:03:16;;;;;;;10.50;6.47;;;22.20;63.40;;;;;;4943147;28;88255;-70
2021/10/07 10:05:44;;;;;;;10.57;5.18;;;22.20;63.20;;;;;;4960416;28;86041;-69
2021/10/07 10:08:11;;;;;;;9.80;5.50;;;22.20;63.30;;;;;;4956311;28;86519;-73
2021/10/07 10:10:39;;;;;;;13.40;5.88;;;22.20;63.20;;;;;;4944076;28;86313;-72
2021/10/07 10:13:06;;;;;;;14.82;6.43;;;22.30;63.20;;;;;;4954305;28;86327;-71
2021/10/07 10:15:34;;;;;;;8.10;5.30;;;22.30;63.60;;;;;;4960398;28;86848;-70
2021/10/07 10:18:00;;;;;;;9.82;5.80;;;22.30;63.50;;;;;;4958324;28;86806;-70
2021/10/07 10:20:29;;;;;;;14.45;6.60;;;22.30;63.40;;;;;;4941269;28;86686;-71
2021/10/07 10:23:03;;;;;;;10.82;6.50;;;22.40;63.30;;;;;;4958783;28;87032;-74
2021/10/07 10:25:31;;;;;;;13.15;5.82;;;22.40;63.10;;;;;;4938442;28;89057;-70
2021/10/07 10:28:06;;;;;;;11.77;6.22;;;22.50;63.50;;;;;;4962138;28;86441;-72
2021/10/07 10:30:41;;;;;;;8.05;4.75;;;22.50;62.80;;;;;;4937030;28;86631;-71
2021/10/07 10:33:27;;;;;;;9.48;5.22;;;22.60;62.60;;;;;;4956158;28;86836;-69
2021/10/07 10:35:52;;;;;;;10.75;5.80;;;22.70;63.00;;;;;;4957044;28;86629;-71
2021/10/07 10:38:18;;;;;;;10.05;5.47;;;22.70;62.20;;;;;;4955671;28;86287;-72
2021/10/07 10:40:44;;;;;;;8.75;5.22;;;22.80;62.20;;;;;;4940426;28;86689;-70
2021/10/07 10:43:30;;;;;;;11.02;4.85;;;22.80;62.00;;;;;;4940355;28;90451;-71
2021/10/07 10:46:01;;;;;;;8.27;4.80;;;22.90;62.00;;;;;;4956671;28;87191;-72
2021/10/07 10:48:44;;;;;;;7.88;4.90;;;22.90;61.80;;;;;;4961474;28;85826;-72
2021/10/07 10:51:16;;;;;;;8.17;4.87;;;22.90;61.60;;;;;;4959561;28;86319;-71
2021/10/07 10:53:59;;;;;;;9.73;5.22;;;22.90;61.50;;;;;;4982188;28;88261;-73
2021/10/07 10:56:30;;;;;;;10.50;5.07;;;23.00;61.40;;;;;;4945939;28;88575;-70
2021/10/07 10:59:25;;;;;;;10.20;4.85;;;23.00;61.30;;;;;;4948066;28;86431;-71
2021/10/07 11:02:19;;;;;;;7.50;4.93;;;23.00;61.20;;;;;;4950479;28;85824;-72
2021/10/07 11:04:50;;;;;;;11.40;5.07;;;23.00;61.20;;;;;;4960569;28;87307;-71
2021/10/07 11:07:27;;;;;;;8.52;4.70;;;23.00;61.10;;;;;;4940504;28;89200;-73
2021/10/07 11:10:03;;;;;;;8.65;4.78;;;23.00;61.10;;;;;;4960483;28;86604;-73
2021/10/07 11:12:50;;;;;;;10.18;5.40;;;23.00;61.10;;;;;;4956594;28;86413;-71
2021/10/07 11:15:18;;;;;;;8.25;4.50;;;23.00;61.10;;;;;;4945125;28;88994;-73
2021/10/07 11:17:45;;;;;;;9.80;4.88;;;23.00;61.20;;;;;;4939683;28;89881;-71
2021/10/07 11:20:22;;;;;;;6.93;4.78;;;23.00;60.90;;;;;;4940345;28;86593;-70
2021/10/07 11:23:05;;;;;;;7.35;4.63;;;23.00;61.00;;;;;;4957795;28;86250;-73
2021/10/07 11:25:33;;;;;;;11.68;5.05;;;23.00;61.00;;;;;;4959773;28;86344;-72
2021/10/07 11:27:59;;;;;;;12.27;5.75;;;23.00;61.00;;;;;;4959299;28;86973;-74
2021/10/07 11:30:26;;;;;;;8.40;5.30;;;23.00;61.00;;;;;;4957938;28;86976;-72
2021/10/07 11:32:52;;;;;;;6.15;4.50;;;23.00;61.10;;;;;;4956001;28;87031;-71
2021/10/07 11:35:20;;;;;;;6.03;4.43;;;23.00;61.10;;;;;;4957128;28;86045;-73
2021/10/07 11:37:59;;;;;;;5.90;4.68;;;23.00;61.10;;;;;;4957444;28;87121;-71
2021/10/07 11:40:44;;;;;;;8.13;4.80;;;23.00;61.60;;;;;;4948153;28;86288;-72
2021/10/07 11:43:19;;;;;;;4.88;4.25;;;22.90;61.00;;;;;;4961159;28;87065;-70
2021/10/07 11:45:56;;;;;;;6.40;5.03;;;22.90;61.00;;;;;;4957256;28;86357;-71
2021/10/07 11:48:23;;;;;;;5.50;4.40;;;23.00;61.00;;;;;;4943904;28;89455;-71
2021/10/07 11:50:52;;;;;;;6.45;4.80;;;23.00;61.00;;;;;;4958448;28;86410;-72
2021/10/07 11:53:33;;;;;;;7.45;5.40;;;23.00;61.00;;;;;;4960477;28;86159;-71
2021/10/07 11:56:03;;;;;;;7.30;4.18;;;23.00;60.90;;;;;;4945323;28;90200;-68
2021/10/07 11:58:30;;;;;;;7.28;4.47;;;23.00;61.00;;;;;;4944780;28;91146;-70
2021/10/07 12:00:57;;;;;;;5.85;4.60;;;23.10;60.90;;;;;;4951898;28;86727;-68
2021/10/07 12:03:32;;;;;;;6.18;4.28;;;23.10;60.90;;;;;;4939962;28;86588;-71
2021/10/07 12:06:05;;;;;;;6.38;4.40;;;23.10;60.80;;;;;;4963726;28;86501;-69
2021/10/07 12:08:35;;;;;;;;;;;23.10;60.80;;;;;;4950308;28;87247;-68
2021/10/07 12:11:09;;;;;;;5.32;4.80;;;23.10;60.80;;;;;;4940460;28;86047;-68
2021/10/07 12:13:41;;;;;;;7.25;4.70;;;23.10;60.70;;;;;;4961632;28;86451;-71
2021/10/07 12:16:11;;;;;;;7.25;4.90;;;23.10;60.60;;;;;;4957264;28;87230;-70
2021/10/07 12:18:40;;;;;;;8.55;4.78;;;23.10;60.50;;;;;;4952327;28;87024;-68
2021/10/07 12:21:08;;;;;;;6.40;4.38;;;23.10;60.40;;;;;;4941723;28;86551;-72
2021/10/07 12:24:01;;;;;;;7.50;4.57;;;23.10;60.30;;;;;;4939686;28;86098;-68
2021/10/07 12:26:31;;;;;;;6.05;4.50;;;23.10;60.50;;;;;;4940999;28;90276;-69
2021/10/07 12:29:00;;;;;;;6.72;4.45;;;23.10;60.40;;;;;;4934002;28;88350;-69
2021/10/07 12:31:29;;;;;;;6.13;4.53;;;23.10;60.30;;;;;;4934125;28;85878;-72
2021/10/07 12:33:56;;;;;;;5.63;4.45;;;23.00;60.30;;;;;;4944468;28;86656;-69
2021/10/07 12:36:30;;;;;;;5.32;4.05;;;23.10;60.30;;;;;;4962301;28;85845;-72
2021/10/07 12:38:55;;;;;;;5.47;4.03;;;23.10;60.40;;;;;;4939657;28;89877;-70
2021/10/07 12:41:54;;;;;;;6.28;4.57;;;23.10;60.40;;;;;;4935665;28;87075;-69
2021/10/07 12:44:26;;;;;;;6.32;4.38;;;23.10;60.40;;;;;;4964708;28;87525;-69
2021/10/07 12:46:56;;;;;;;6.60;4.80;;;23.10;60.40;;;;;;4938663;28;88251;-71
2021/10/07 12:49:35;;;;;;;6.88;4.60;;;23.10;60.30;;;;;;4937055;28;87703;-69
2021/10/07 12:52:09;;;;;;;5.10;3.90;;;23.10;60.30;;;;;;4958706;28;86379;-68
2021/10/07 12:54:35;;;;;;;6.95;4.00;;;23.10;60.30;;;;;;4942689;28;87121;-69
2021/10/07 12:57:01;;;;;;;6.03;4.47;;;23.10;60.10;;;;;;4953986;28;87482;-68